createdAt,value
2022-09-20T00:01:32.061Z,95.70
2022-09-20T00:04:00.538Z,95.70
2022-09-20T00:06:30.246Z,95.70
2022-09-20T00:08:59.448Z,95.70
2022-09-20T00:11:28.700Z,95.70
2022-09-20T00:13:56.742Z,95.70
2022-09-20T00:16:26.632Z,95.70
2022-09-20T00:18:54.995Z,95.70
2022-09-20T00:21:24.375Z,95.70
2022-09-20T00:23:52.168Z,95.70
2022-09-20T00:26:19.358Z,95.70
2022-09-20T00:28:47.080Z,95.70
2022-09-20T00:31:14.388Z,95.70
2022-09-20T00:33:59.607Z,95.70
2022-09-20T00:36:27.430Z,95.70
2022-09-20T00:38:59.064Z,95.70
2022-09-20T00:41:26.231Z,95.70
2022-09-20T00:43:53.250Z,95.70
2022-09-20T00:46:35.927Z,95.70
2022-09-20T00:49:17.876Z,95.70
2022-09-20T00:51:51.147Z,95.70
2022-09-20T00:54:20.807Z,95.70
2022-09-20T00:56:48.286Z,95.70
2022-09-20T00:59:21.439Z,95.70
2022-09-20T01:01:52.594Z,95.70
2022-09-20T01:04:21.759Z,95.70
2022-09-20T01:06:50.420Z,95.70
2022-09-20T01:09:17.152Z,95.70
2022-09-20T01:11:44.165Z,95.70
2022-09-20T01:14:13.658Z,95.70
2022-09-20T01:16:40.731Z,95.70
2022-09-20T01:19:38.390Z,95.70
2022-09-20T01:22:10.670Z,95.70
2022-09-20T01:24:50.003Z,95.70
2022-09-20T01:27:26.684Z,95.70
2022-09-20T01:30:08.912Z,95.70
2022-09-20T01:32:56.652Z,95.70
2022-09-20T01:35:25.373Z,95.70
2022-09-20T01:38:24.480Z,95.70
2022-09-20T01:41:06.460Z,95.70
2022-09-20T01:43:41.250Z,95.70
2022-09-20T01:46:42.226Z,95.70
2022-09-20T01:49:45.218Z,95.70
2022-09-20T01:52:30.774Z,95.70
2022-09-20T01:55:22.260Z,95.70
2022-09-20T01:57:51.898Z,95.70
2022-09-20T02:00:26.476Z,95.70
2022-09-20T02:03:12.465Z,95.70
2022-09-20T02:05:48.227Z,95.70
2022-09-20T02:09:03.523Z,95.70
2022-09-20T02:11:53.094Z,95.70
2022-09-20T02:14:33.340Z,95.70
2022-09-20T02:17:13.840Z,95.70
2022-09-20T02:19:46.446Z,95.70
2022-09-20T02:22:40.609Z,95.70
2022-09-20T02:25:25.548Z,95.70
2022-09-20T02:28:23.429Z,95.70
2022-09-20T02:31:13.177Z,95.70
2022-09-20T02:33:52.871Z,95.50
2022-09-20T02:36:46.021Z,95.50
2022-09-20T02:39:23.033Z,95.50
2022-09-20T02:42:08.384Z,95.10
2022-09-20T02:45:04.268Z,95.00
2022-09-20T02:47:37.867Z,95.00
2022-09-20T02:50:31.759Z,95.00
2022-09-20T02:53:17.526Z,94.90
2022-09-20T02:56:00.901Z,94.80
2022-09-20T02:58:49.797Z,94.70
2022-09-20T03:01:31.650Z,94.30
2022-09-20T03:04:33.334Z,94.20
2022-09-20T03:07:10.623Z,93.90
2022-09-20T03:09:47.342Z,93.80
2022-09-20T03:12:28.461Z,93.60
2022-09-20T03:15:35.414Z,93.60
2022-09-20T03:18:15.508Z,93.70
2022-09-20T03:20:55.298Z,93.90
2022-09-20T03:23:37.234Z,94.10
2022-09-20T03:26:13.007Z,94.10
2022-09-20T03:28:52.671Z,94.10
2022-09-20T03:31:23.917Z,94.00
2022-09-20T03:34:24.546Z,94.10
2022-09-20T03:37:03.043Z,94.30
2022-09-20T03:40:14.806Z,94.40
2022-09-20T03:42:48.539Z,94.40
2022-09-20T03:46:08.978Z,94.40
2022-09-20T03:48:57.148Z,94.40
2022-09-20T03:51:36.338Z,94.60
2022-09-20T03:54:23.295Z,94.70
2022-09-20T03:57:15.837Z,94.70
2022-09-20T04:00:11.432Z,94.70
2022-09-20T04:02:58.085Z,94.70
2022-09-20T04:05:43.621Z,94.80
2022-09-20T04:08:37.984Z,94.80
2022-09-20T04:11:14.039Z,94.80
2022-09-20T04:13:50.691Z,94.80
2022-09-20T04:16:33.554Z,94.80
2022-09-20T04:19:32.914Z,94.80
2022-09-20T04:22:01.413Z,94.80
2022-09-20T04:24:44.316Z,94.70
2022-09-20T04:27:26.273Z,94.70
2022-09-20T04:29:53.106Z,94.70
2022-09-20T04:32:23.071Z,94.70
2022-09-20T04:35:22.640Z,94.60
2022-09-20T04:37:50.727Z,94.50
2022-09-20T04:40:44.467Z,94.50
2022-09-20T04:43:52.262Z,94.50
2022-09-20T04:46:37.616Z,94.40
2022-09-20T04:49:23.180Z,94.30
2022-09-20T04:52:11.481Z,94.30
2022-09-20T04:55:02.415Z,94.30
2022-09-20T04:57:41.367Z,94.30
2022-09-20T05:00:24.046Z,94.20
2022-09-20T05:03:12.653Z,94.20
2022-09-20T05:05:56.048Z,94.20
2022-09-20T05:08:41.142Z,94.20
2022-09-20T05:11:42.299Z,94.10
2022-09-20T05:14:36.949Z,94.10
2022-09-20T05:17:21.353Z,94.10
2022-09-20T05:20:17.027Z,94.10
2022-09-20T05:22:55.929Z,94.00
2022-09-20T05:25:46.849Z,93.90
2022-09-20T05:28:49.786Z,93.70
2022-09-20T05:31:40.803Z,93.60
2022-09-20T05:34:44.079Z,93.50
2022-09-20T05:37:49.469Z,93.30
2022-09-20T05:40:35.535Z,93.30
2022-09-20T05:43:41.590Z,93.40
2022-09-20T05:46:36.131Z,93.40
2022-09-20T05:49:35.835Z,93.40
2022-09-20T05:52:13.046Z,93.30
2022-09-20T05:55:18.054Z,93.30
2022-09-20T05:57:56.664Z,93.20
2022-09-20T06:00:28.960Z,92.80
2022-09-20T06:03:04.463Z,92.70
2022-09-20T06:06:05.509Z,92.60
2022-09-20T06:08:50.930Z,92.60
2022-09-20T06:11:35.811Z,92.50
2022-09-20T06:14:03.578Z,92.40
2022-09-20T06:16:48.834Z,92.40
2022-09-20T06:20:10.375Z,92.40
2022-09-20T06:22:43.906Z,92.40
2022-09-20T06:25:10.603Z,91.90
2022-09-20T06:27:43.662Z,91.90
2022-09-20T06:30:19.697Z,91.90
2022-09-20T06:33:13.870Z,91.60
2022-09-20T06:35:44.435Z,91.30
2022-09-20T06:39:11.845Z,90.60
2022-09-20T06:41:39.451Z,90.60
2022-09-20T06:44:06.354Z,90.60
2022-09-20T06:46:35.670Z,90.70
2022-09-20T06:49:03.636Z,90.30
2022-09-20T06:51:35.190Z,90.30
2022-09-20T06:54:02.310Z,90.50
2022-09-20T06:56:31.257Z,90.30
2022-09-20T06:58:57.950Z,90.00
2022-09-20T07:01:30.019Z,90.10
2022-09-20T07:03:58.731Z,90.20
2022-09-20T07:06:26.692Z,90.60
2022-09-20T07:08:53.562Z,91.00
2022-09-20T07:11:23.048Z,91.40
2022-09-20T07:13:52.034Z,91.60
2022-09-20T07:16:18.847Z,91.70
2022-09-20T07:18:45.761Z,91.80
2022-09-20T07:21:14.361Z,91.80
2022-09-20T07:23:41.149Z,92.20
2022-09-20T07:26:16.395Z,92.80
2022-09-20T07:28:43.088Z,92.80
2022-09-20T07:31:10.617Z,93.00
2022-09-20T07:33:37.341Z,93.40
2022-09-20T07:36:04.246Z,93.90
2022-09-20T07:38:30.927Z,94.50
2022-09-20T07:41:00.525Z,95.20
2022-09-20T07:43:27.706Z,95.70
2022-09-20T07:45:56.030Z,95.70
2022-09-20T07:48:25.825Z,95.70
2022-09-20T07:51:04.759Z,95.70
2022-09-20T07:53:35.187Z,95.70
2022-09-20T07:56:07.913Z,95.70
2022-09-20T07:58:35.504Z,95.70
2022-09-20T08:01:10.880Z,95.70
2022-09-20T08:03:37.839Z,95.70
2022-09-20T08:06:14.496Z,95.70
2022-09-20T08:08:41.247Z,95.70
2022-09-20T08:11:14.063Z,95.70
2022-09-20T08:16:30.730Z,95.70
2022-09-20T08:18:59.936Z,95.70
2022-09-20T08:21:31.007Z,95.70
2022-09-20T08:23:58.680Z,95.70
2022-09-20T08:26:26.806Z,95.70
2022-09-20T08:28:56.168Z,95.70
2022-09-20T08:31:25.458Z,95.70
2022-09-20T08:33:53.371Z,95.70
2022-09-20T08:36:25.887Z,95.70
2022-09-20T08:41:47.752Z,95.70
2022-09-20T08:44:35.233Z,94.20
2022-09-20T08:47:12.245Z,93.80
2022-09-20T08:49:38.988Z,92.90
2022-09-20T08:52:10.463Z,91.80
2022-09-20T08:54:37.304Z,91.40
2022-09-20T08:57:09.383Z,91.10
2022-09-20T08:59:36.097Z,90.00
2022-09-20T09:02:02.917Z,89.50
2022-09-20T09:04:35.235Z,89.40
2022-09-20T09:07:02.707Z,89.40
2022-09-20T09:09:29.645Z,89.40
2022-09-20T09:11:58.410Z,88.70
2022-09-20T09:14:53.969Z,88.60
2022-09-20T09:17:29.266Z,88.30
2022-09-20T09:20:06.840Z,86.40
2022-09-20T09:22:45.121Z,86.50
2022-09-20T09:25:15.243Z,86.30
2022-09-20T09:28:00.047Z,86.80
2022-09-20T09:30:33.101Z,85.30
2022-09-20T09:33:21.608Z,85.00
2022-09-20T09:35:59.287Z,85.60
2022-09-20T09:38:29.795Z,86.00
2022-09-20T09:41:03.186Z,85.20
2022-09-20T09:43:35.337Z,84.80
2022-09-20T09:46:21.451Z,82.80
2022-09-20T09:49:10.663Z,82.00
2022-09-20T09:51:38.712Z,80.40
2022-09-20T09:54:07.712Z,80.70
2022-09-20T09:56:57.866Z,79.00
2022-09-20T09:59:49.439Z,79.90
2022-09-20T10:02:19.165Z,78.80
2022-09-20T10:04:54.478Z,79.40
2022-09-20T10:07:36.137Z,77.60
2022-09-20T10:10:22.815Z,77.70
2022-09-20T10:13:16.788Z,77.90
2022-09-20T10:16:08.986Z,77.50
2022-09-20T10:19:00.037Z,77.10
2022-09-20T10:21:57.003Z,75.70
2022-09-20T10:24:48.499Z,75.80
2022-09-20T10:27:49.647Z,75.80
2022-09-20T10:30:37.875Z,76.70
2022-09-20T10:33:26.519Z,77.20
2022-09-20T10:36:41.890Z,78.20
2022-09-20T10:39:15.874Z,78.10
2022-09-20T10:42:21.788Z,76.60
2022-09-20T10:45:36.057Z,75.30
2022-09-20T10:48:31.781Z,76.30
2022-09-20T10:51:18.345Z,76.10
2022-09-20T10:54:10.836Z,77.60
2022-09-20T10:56:44.618Z,76.50
2022-09-20T10:59:48.600Z,76.10
2022-09-20T11:02:24.434Z,75.20
2022-09-20T11:05:10.037Z,75.80
2022-09-20T11:08:15.233Z,75.90
2022-09-20T11:10:49.539Z,74.70
2022-09-20T11:13:38.004Z,74.90
2022-09-20T11:16:36.904Z,76.60
2022-09-20T11:19:29.259Z,75.50
2022-09-20T11:22:13.158Z,75.90
2022-09-20T11:25:16.852Z,75.90
2022-09-20T11:27:58.132Z,75.90
2022-09-20T11:30:28.143Z,74.30
2022-09-20T11:33:07.517Z,74.80
2022-09-20T11:35:46.345Z,75.20
2022-09-20T11:38:22.267Z,75.40
2022-09-20T11:41:00.351Z,75.40
2022-09-20T11:43:28.997Z,76.30
2022-09-20T11:46:04.146Z,76.00
2022-09-20T11:48:43.657Z,74.00
2022-09-20T11:51:39.312Z,73.00
2022-09-20T11:54:54.624Z,73.80
2022-09-20T11:57:21.665Z,74.30
2022-09-20T12:00:04.875Z,75.70
2022-09-20T12:02:48.863Z,75.40
2022-09-20T12:05:35.820Z,74.40
2022-09-20T12:08:10.705Z,74.00
2022-09-20T12:10:39.371Z,75.60
2022-09-20T12:13:16.756Z,74.10
2022-09-20T12:15:43.631Z,73.70
2022-09-20T12:18:45.715Z,74.30
2022-09-20T12:21:17.912Z,74.20
2022-09-20T12:23:50.693Z,75.10
2022-09-20T12:26:20.840Z,74.60
2022-09-20T12:28:52.240Z,74.20
2022-09-20T12:31:21.351Z,74.40
2022-09-20T12:33:59.490Z,73.80
2022-09-20T12:37:00.074Z,73.60
2022-09-20T12:39:37.915Z,74.30
2022-09-20T12:42:10.595Z,74.20
2022-09-20T12:44:39.667Z,74.90
2022-09-20T12:47:12.770Z,76.40
2022-09-20T12:50:07.393Z,75.00
2022-09-20T12:52:55.788Z,75.60
2022-09-20T12:55:31.514Z,74.20
2022-09-20T12:58:14.716Z,74.10
2022-09-20T13:01:14.264Z,76.00
2022-09-20T13:03:48.319Z,75.60
2022-09-20T13:06:16.386Z,74.10
2022-09-20T13:08:49.619Z,75.20
2022-09-20T13:11:44.030Z,75.00
2022-09-20T13:14:21.914Z,75.40
2022-09-20T13:16:59.267Z,75.50
2022-09-20T13:19:33.421Z,74.70
2022-09-20T13:22:00.079Z,74.60
2022-09-20T13:24:30.931Z,74.30
2022-09-20T13:27:03.226Z,74.70
2022-09-20T13:29:34.982Z,73.70
2022-09-20T13:32:24.814Z,74.70
2022-09-20T13:35:08.556Z,74.70
2022-09-20T13:37:58.411Z,75.30
2022-09-20T13:40:35.183Z,73.60
2022-09-20T13:43:22.759Z,72.80
2022-09-20T13:45:53.866Z,74.40
2022-09-20T13:48:26.500Z,74.60
2022-09-20T13:50:53.986Z,75.30
2022-09-20T13:53:40.201Z,75.40
2022-09-20T13:56:29.913Z,73.40
2022-09-20T13:58:58.967Z,72.90
2022-09-20T14:01:29.226Z,73.80
2022-09-20T14:04:04.453Z,75.30
2022-09-20T14:06:31.477Z,72.70
2022-09-20T14:09:01.282Z,74.10
2022-09-20T14:11:37.384Z,73.20
2022-09-20T14:14:05.106Z,74.40
2022-09-20T14:16:34.666Z,74.30
2022-09-20T14:19:12.859Z,76.40
2022-09-20T14:21:39.772Z,76.00
2022-09-20T14:24:28.686Z,75.10
2022-09-20T14:27:19.764Z,76.10
2022-09-20T14:29:51.311Z,74.70
2022-09-20T14:32:18.023Z,76.00
2022-09-20T14:34:59.396Z,76.00
2022-09-20T14:37:32.664Z,75.80
2022-09-20T14:40:02.123Z,75.70
2022-09-20T14:42:54.484Z,74.70
2022-09-20T14:45:33.995Z,74.60
2022-09-20T14:48:23.033Z,73.40
2022-09-20T14:51:38.291Z,73.90
2022-09-20T14:54:05.056Z,74.10
2022-09-20T14:56:54.726Z,73.20
2022-09-20T14:59:25.166Z,73.30
2022-09-20T15:02:00.785Z,74.20
2022-09-20T15:04:28.474Z,74.70
2022-09-20T15:06:56.670Z,74.40
2022-09-20T15:09:23.409Z,74.90
2022-09-20T15:12:07.270Z,74.80
2022-09-20T15:14:37.434Z,75.80
2022-09-20T15:17:05.044Z,76.40
2022-09-20T15:19:31.771Z,76.30
2022-09-20T15:21:59.321Z,75.60
2022-09-20T15:24:26.195Z,75.70
2022-09-20T15:26:52.888Z,75.80
2022-09-20T15:29:19.759Z,76.50
2022-09-20T15:31:47.838Z,76.80
2022-09-20T15:34:15.143Z,76.80
2022-09-20T15:36:42.616Z,77.20
2022-09-20T15:39:11.513Z,77.80
2022-09-20T15:41:38.549Z,78.30
2022-09-20T15:44:06.492Z,79.20
2022-09-20T15:46:33.978Z,79.60
2022-09-20T15:49:04.813Z,80.50
2022-09-20T15:51:31.533Z,80.50
2022-09-20T15:54:00.456Z,81.70
2022-09-20T15:56:32.135Z,82.30
2022-09-20T15:59:06.566Z,82.00
2022-09-20T16:01:41.232Z,82.60
2022-09-20T16:04:15.580Z,84.00
2022-09-20T16:06:44.357Z,86.00
2022-09-20T16:09:11.823Z,86.80
2022-09-20T16:11:38.869Z,87.60
2022-09-20T16:14:06.409Z,87.90
2022-09-20T16:16:39.657Z,88.20
2022-09-20T16:19:17.951Z,88.40
2022-09-20T16:21:53.732Z,88.90
2022-09-20T16:24:26.018Z,89.10
2022-09-20T16:26:52.951Z,89.40
2022-09-20T16:29:22.000Z,89.50
2022-09-20T16:31:50.314Z,89.90
2022-09-20T16:34:21.326Z,90.20
2022-09-20T16:36:50.866Z,90.60
2022-09-20T16:39:18.783Z,91.10
2022-09-20T16:41:47.812Z,91.40
2022-09-20T16:44:15.631Z,91.60
2022-09-20T16:46:42.549Z,91.80
2022-09-20T16:49:10.935Z,92.10
2022-09-20T16:51:39.166Z,92.40
2022-09-20T16:54:13.907Z,92.60
2022-09-20T16:56:43.160Z,93.00
2022-09-20T16:59:10.774Z,93.20
2022-09-20T17:01:38.880Z,93.50
2022-09-20T17:04:07.212Z,93.70
2022-09-20T17:06:35.640Z,93.90
2022-09-20T17:09:06.672Z,94.20
2022-09-20T17:11:41.148Z,94.50
2022-09-20T17:14:09.380Z,94.70
2022-09-20T17:16:44.113Z,95.00
2022-09-20T17:19:12.804Z,95.40
2022-09-20T17:21:45.672Z,95.70
2022-09-20T17:24:30.248Z,95.70
2022-09-20T17:26:58.677Z,95.70
2022-09-20T17:29:25.477Z,95.70
2022-09-20T17:31:56.013Z,95.70
2022-09-20T17:34:41.340Z,95.70
2022-09-20T17:37:08.189Z,95.70
2022-09-20T17:39:37.977Z,95.70
2022-09-20T17:42:06.954Z,95.70
2022-09-20T17:44:41.857Z,95.70
2022-09-20T17:47:09.304Z,95.70
2022-09-20T17:49:38.313Z,95.70
2022-09-20T17:52:08.000Z,95.70
2022-09-20T17:54:36.857Z,95.70
2022-09-20T17:57:05.816Z,95.70
2022-09-20T17:59:35.736Z,95.70
2022-09-20T18:02:03.163Z,95.70
2022-09-20T18:04:29.863Z,95.70
2022-09-20T18:06:56.672Z,95.70
2022-09-20T18:09:25.282Z,95.70
2022-09-20T18:11:53.255Z,95.70
2022-09-20T18:14:23.274Z,95.70
2022-09-20T18:16:55.878Z,95.70
2022-09-20T18:19:23.015Z,95.70
2022-09-20T18:21:50.238Z,95.70
2022-09-20T18:24:17.154Z,95.70
2022-09-20T18:26:47.238Z,95.70
2022-09-20T18:29:20.732Z,95.70
2022-09-20T18:31:53.255Z,95.70
2022-09-20T18:34:22.286Z,95.70
2022-09-20T18:37:34.912Z,95.70
2022-09-20T18:40:08.105Z,95.70
2022-09-20T18:42:40.068Z,95.70
2022-09-20T18:45:08.191Z,95.70
2022-09-20T18:47:38.139Z,95.70
2022-09-20T18:50:14.485Z,95.70
2022-09-20T18:52:44.436Z,95.70
2022-09-20T18:55:18.452Z,95.70
2022-09-20T18:58:02.566Z,95.70
2022-09-20T19:00:32.510Z,95.70
2022-09-20T19:03:11.437Z,95.70
2022-09-20T19:05:43.169Z,95.70
2022-09-20T19:08:51.987Z,95.70
2022-09-20T19:11:55.428Z,95.70
2022-09-20T19:14:41.266Z,95.70
2022-09-20T19:17:12.187Z,95.70
2022-09-20T19:19:43.421Z,95.70
2022-09-20T19:22:18.650Z,95.70
2022-09-20T19:24:59.139Z,95.70
2022-09-20T19:27:26.265Z,95.70
2022-09-20T19:29:53.802Z,95.70
2022-09-20T19:32:24.178Z,95.70
2022-09-20T19:34:53.586Z,95.70
2022-09-20T19:37:25.855Z,95.70
2022-09-20T19:40:01.848Z,95.70
2022-09-20T19:43:04.043Z,95.70
2022-09-20T19:45:52.141Z,95.70
2022-09-20T19:48:37.281Z,95.70
2022-09-20T19:51:08.042Z,95.70
2022-09-20T19:53:34.971Z,95.70
2022-09-20T19:56:22.731Z,95.70
2022-09-20T19:58:52.972Z,95.70
2022-09-20T20:01:24.167Z,95.70
2022-09-20T20:03:52.566Z,95.70
2022-09-20T20:06:39.941Z,95.70
2022-09-20T20:09:25.971Z,95.70
2022-09-20T20:12:26.040Z,95.70
2022-09-20T20:15:04.928Z,95.70
2022-09-20T20:17:48.795Z,95.70
2022-09-20T20:20:36.839Z,95.70
2022-09-20T20:23:34.498Z,95.70
2022-09-20T20:26:20.318Z,95.70
2022-09-20T20:28:47.886Z,95.70
2022-09-20T20:31:15.057Z,95.70
2022-09-20T20:33:43.386Z,95.70
2022-09-20T20:36:11.955Z,95.70
2022-09-20T20:38:40.333Z,95.70
2022-09-20T20:41:09.453Z,95.70
2022-09-20T20:43:38.619Z,95.70
2022-09-20T20:46:07.939Z,95.70
2022-09-20T20:48:35.595Z,95.70
2022-09-20T20:51:07.896Z,95.70
2022-09-20T20:53:37.338Z,95.70
2022-09-20T20:56:09.497Z,95.70
2022-09-20T20:58:37.866Z,95.70
2022-09-20T21:01:26.209Z,95.70
2022-09-20T21:03:54.390Z,95.70
2022-09-20T21:06:24.106Z,95.70
2022-09-20T21:08:51.072Z,95.70
2022-09-20T21:11:25.200Z,95.70
2022-09-20T21:13:53.236Z,95.70
2022-09-20T21:16:23.934Z,95.70
2022-09-20T21:18:51.488Z,95.70
2022-09-20T21:21:22.561Z,95.70
2022-09-20T21:23:51.149Z,95.70
2022-09-20T21:26:19.357Z,95.70
2022-09-20T21:28:59.491Z,95.70
2022-09-20T21:31:31.559Z,95.70
2022-09-20T21:33:58.841Z,95.70
2022-09-20T21:36:27.787Z,95.70
2022-09-20T21:38:57.006Z,95.70
2022-09-20T21:41:24.871Z,95.70
2022-09-20T21:43:53.858Z,95.70
2022-09-20T21:46:31.212Z,95.70
2022-09-20T21:49:02.387Z,95.70
2022-09-20T21:51:29.762Z,95.70
2022-09-20T21:53:58.078Z,95.70
2022-09-20T21:56:27.371Z,95.70
2022-09-20T21:58:55.005Z,95.70
2022-09-20T22:01:23.942Z,95.70
2022-09-20T22:03:52.831Z,95.70
2022-09-20T22:06:24.055Z,95.70
2022-09-20T22:08:58.661Z,95.70
2022-09-20T22:11:27.115Z,95.70
2022-09-20T22:13:54.811Z,95.70
2022-09-20T22:16:29.959Z,95.70
2022-09-20T22:18:57.111Z,95.70
2022-09-20T22:21:26.247Z,95.70
2022-09-20T22:23:58.545Z,95.70
2022-09-20T22:26:27.801Z,95.70
2022-09-20T22:28:54.612Z,95.70
2022-09-20T22:31:26.581Z,95.70
2022-09-20T22:33:55.670Z,95.70
2022-09-20T22:36:25.299Z,95.70
2022-09-20T22:38:53.192Z,95.70
2022-09-20T22:41:21.144Z,95.70
2022-09-20T22:43:48.093Z,95.70
2022-09-20T22:46:25.971Z,95.70
2022-09-20T22:48:52.822Z,95.70
2022-09-20T22:51:24.513Z,95.70
2022-09-20T22:53:54.039Z,95.70
2022-09-20T22:56:26.394Z,95.70
2022-09-20T22:58:55.175Z,95.70
2022-09-20T23:01:27.511Z,95.70
2022-09-20T23:03:56.845Z,95.70
2022-09-20T23:06:26.667Z,95.70
2022-09-20T23:08:56.053Z,95.70
2022-09-20T23:11:22.956Z,95.70
2022-09-20T23:13:56.242Z,95.70
2022-09-20T23:16:25.284Z,95.70
2022-09-20T23:18:52.730Z,95.70
2022-09-20T23:21:20.097Z,95.70
2022-09-20T23:23:48.068Z,95.70
2022-09-20T23:26:17.321Z,95.70
2022-09-20T23:28:53.908Z,95.70
2022-09-20T23:31:20.867Z,95.70
2022-09-20T23:33:55.047Z,95.70
2022-09-20T23:36:22.765Z,95.70
2022-09-20T23:38:49.882Z,95.70
2022-09-20T23:41:19.088Z,95.70
2022-09-20T23:43:45.965Z,95.70
2022-09-20T23:46:13.929Z,95.70
2022-09-20T23:48:44.224Z,95.70
2022-09-20T23:51:13.808Z,95.70
2022-09-20T23:53:41.581Z,95.70
2022-09-20T23:56:09.550Z,95.70
2022-09-20T23:58:37.374Z,95.70
